Time;durP1;ratioP1;P1;durP2;ratioP2;P2;SDS_P1;SDS_P2;PMS_P1;PMS_P2;Temp;Humidity;BMP_temperature;BMP_pressure;BME280_temperature;BME280_humidity;BME280_pressure;Samples;Min_cycle;Max_cycle;Signal;HPM_P1;HPM_P2
2022/09/21 00:00:38;;;;;;;5.27;3.87;;;-40.00;99.90;;;;;;5081092;28;20592;-80
2022/09/21 00:03:04;;;;;;;4.37;3.97;;;-39.00;99.90;;;;;;5082091;28;20606;-72
2022/09/21 00:05:31;;;;;;;6.20;4.63;;;-40.00;99.90;;;;;;5079567;28;20238;-74
2022/09/21 00:08:01;;;;;;;4.33;3.70;;;-39.10;99.90;;;;;;5077842;28;20193;-79
2022/09/21 00:10:27;;;;;;;9.10;4.00;;;-37.60;99.90;;;;;;5077138;28;20241;-74
2022/09/21 00:12:55;;;;;;;4.43;4.03;;;-40.00;99.90;;;;;;5077928;28;20187;-75
2022/09/21 00:15:21;;;;;;;10.43;4.80;;;-40.00;99.90;;;;;;5077689;28;20209;-76
2022/09/21 00:17:47;;;;;;;6.30;4.27;;;-40.00;99.90;;;;;;5077596;28;20197;-81
2022/09/21 00:20:14;;;;;;;6.47;4.33;;;-40.00;99.90;;;;;;5076230;28;20193;-76
2022/09/21 00:22:40;;;;;;;9.47;4.17;;;-40.00;99.90;;;;;;5083393;28;20180;-80
2022/09/21 00:25:08;;;;;;;6.13;4.87;;;-40.00;99.90;;;;;;5084233;28;20194;-80
2022/09/21 00:27:34;;;;;;;5.47;3.57;;;-40.00;99.90;;;;;;5085263;28;20236;-75
2022/09/21 00:30:02;;;;;;;7.20;3.70;;;-40.00;99.90;;;;;;5079924;28;20197;-76
2022/09/21 00:32:32;;;;;;;4.43;4.03;;;-40.00;99.90;;;;;;5077361;28;20263;-77
2022/09/21 00:34:59;;;;;;;6.83;4.57;;;-40.00;99.90;;;;;;5084173;28;20257;-77
2022/09/21 00:37:26;;;;;;;6.17;3.77;;;-40.00;99.90;;;;;;5083127;28;20619;-78
2022/09/21 00:39:53;;;;;;;8.60;4.67;;;-40.00;99.90;;;;;;5086326;28;20192;-77
2022/09/21 00:42:21;;;;;;;5.20;4.30;;;-40.00;99.90;;;;;;5080308;28;20493;-80
2022/09/21 00:44:48;;;;;;;6.07;4.93;;;-40.00;99.90;;;;;;5081820;28;20504;-78
2022/09/21 00:47:43;;;;;;;9.77;4.53;;;-40.00;99.90;;;;;;5077732;28;20183;-80
2022/09/21 00:50:14;;;;;;;6.57;4.20;;;-40.00;99.90;;;;;;5079600;28;20181;-77
2022/09/21 00:52:48;;;;;;;5.77;4.13;;;-40.00;99.90;;;;;;5078571;28;20214;-81
2022/09/21 00:55:30;;;;;;;9.93;3.93;;;-40.00;99.90;;;;;;5080523;28;20480;-77
2022/09/21 00:58:01;;;;;;;9.20;3.87;;;-40.00;99.90;;;;;;5078392;28;20183;-77
2022/09/21 01:00:27;;;;;;;8.40;3.80;;;-40.00;99.90;;;;;;5079962;28;20199;-78
2022/09/21 01:03:00;;;;;;;4.37;3.87;;;-40.00;99.90;;;;;;5075421;28;20187;-81
2022/09/21 01:05:27;;;;;;;6.13;3.93;;;-40.00;99.90;;;;;;5082480;28;20479;-82
2022/09/21 01:07:55;;;;;;;4.30;3.90;;;-40.00;99.90;;;;;;5077605;28;20216;-80
2022/09/21 01:10:22;;;;;;;5.83;3.70;;;-40.00;99.90;;;;;;5083001;28;20649;-79
2022/09/21 01:13:06;;;;;;;8.10;4.07;;;-40.00;99.90;;;;;;5081486;28;20186;-77
2022/09/21 01:15:44;;;;;;;6.40;4.53;;;-40.00;99.90;;;;;;5075654;28;20211;-75
2022/09/21 01:18:23;;;;;;;3.90;3.50;;;-40.00;99.90;;;;;;5076292;28;20268;-76
2022/09/21 01:21:10;;;;;;;7.50;4.20;;;-40.00;99.90;;;;;;5081080;28;20187;-79
2022/09/21 01:23:44;;;;;;;13.27;4.00;;;-40.00;99.90;;;;;;5086000;28;20223;-76
2022/09/21 01:26:29;;;;;;;5.03;4.13;;;-40.00;99.90;;;;;;5077326;28;20179;-80
2022/09/21 01:29:04;;;;;;;5.40;3.87;;;-40.00;99.90;;;;;;5079677;28;20539;-80
2022/09/21 01:31:43;;;;;;;5.77;4.10;;;-40.00;99.90;;;;;;5082539;28;20189;-76
2022/09/21 01:34:18;;;;;;;6.03;3.80;;;-40.00;99.90;;;;;;5076384;28;20207;-78
2022/09/21 01:36:47;;;;;;;4.57;3.20;;;-40.00;99.90;;;;;;5079074;28;20570;-79
2022/09/21 01:39:15;;;;;;;4.53;3.87;;;-40.00;99.90;;;;;;5080563;28;20175;-79
2022/09/21 01:41:44;;;;;;;5.40;3.23;;;-40.00;99.90;;;;;;5076739;28;20188;-74
2022/09/21 01:44:19;;;;;;;4.53;3.27;;;-40.00;99.90;;;;;;5082714;28;20185;-73
2022/09/21 01:46:46;;;;;;;6.93;3.70;;;-40.00;99.90;;;;;;5081272;28;20189;-78
2022/09/21 01:49:16;;;;;;;4.27;3.93;;;-40.00;99.90;;;;;;5080523;28;20179;-80
2022/09/21 01:51:50;;;;;;;7.70;3.70;;;-40.00;99.90;;;;;;5082759;28;20230;-78
2022/09/21 01:54:22;;;;;;;3.83;3.43;;;-40.00;99.90;;;;;;5076452;28;20241;-68
2022/09/21 01:57:00;;;;;;;3.90;3.10;;;-40.00;99.90;;;;;;5075717;28;20228;-70
2022/09/21 01:59:48;;;;;;;6.47;3.57;;;-40.00;99.90;;;;;;5075054;28;20191;-71
2022/09/21 02:02:20;;;;;;;5.77;3.87;;;-40.00;99.90;;;;;;5075512;28;20183;-71
2022/09/21 02:04:46;;;;;;;6.43;3.90;;;-40.00;99.90;;;;;;5079449;28;20187;-71
2022/09/21 02:07:11;;;;;;;8.10;4.47;;;-40.00;99.90;;;;;;5075147;28;20233;-70
2022/09/21 02:09:38;;;;;;;9.17;3.73;;;-40.00;99.90;;;;;;5077562;28;20186;-79
2022/09/21 02:12:04;;;;;;;3.60;3.27;;;-40.00;99.90;;;;;;5084234;28;20193;-72
2022/09/21 02:14:32;;;;;;;5.10;4.30;;;-40.00;99.90;;;;;;5080886;28;20213;-74
2022/09/21 02:17:39;;;;;;;6.43;4.27;;;-40.00;99.90;;;;;;5080325;28;20194;-72
2022/09/21 02:20:24;;;;;;;8.70;4.23;;;-40.00;99.90;;;;;;5076302;28;20232;-71
2022/09/21 02:23:02;;;;;;;4.30;3.97;;;-40.00;99.90;;;;;;5086389;28;20179;-76
2022/09/21 02:25:40;;;;;;;13.80;3.93;;;-40.00;99.90;;;;;;5094161;28;20213;-77
2022/09/21 02:28:09;;;;;;;4.17;3.33;;;-40.00;99.90;;;;;;5081549;28;20590;-76
2022/09/21 02:30:37;;;;;;;12.87;5.13;;;-40.00;99.90;;;;;;5082330;28;20221;-79
2022/09/21 02:33:31;;;;;;;6.30;3.10;;;-40.00;99.90;;;;;;5083079;28;20171;-78
2022/09/21 02:36:21;;;;;;;10.10;3.73;;;-40.00;99.90;;;;;;5081488;28;20199;-76
2022/09/21 02:38:55;;;;;;;4.50;3.40;;;-40.00;99.90;;;;;;5075292;28;20282;-72
2022/09/21 02:41:37;;;;;;;7.27;4.10;;;-40.00;99.90;;;;;;5081454;28;20175;-77
2022/09/21 02:44:10;;;;;;;5.73;3.50;;;-40.00;99.90;;;;;;5076197;28;20183;-81
2022/09/21 02:46:48;;;;;;;5.60;3.07;;;-40.00;99.90;;;;;;5084244;28;20222;-76
2022/09/21 02:49:20;;;;;;;5.07;4.17;;;-40.00;99.90;;;;;;5085807;28;20258;-74
2022/09/21 02:51:50;;;;;;;4.80;2.97;;;-40.00;99.90;;;;;;5075942;28;20319;-78
2022/09/21 02:54:21;;;;;;;5.50;3.50;;;-40.00;99.90;;;;;;5075498;28;20210;-71
2022/09/21 02:56:49;;;;;;;4.43;3.10;;;-40.00;99.90;;;;;;5077811;28;20193;-70
2022/09/21 02:59:16;;;;;;;3.00;2.80;;;-40.00;99.90;;;;;;5077943;28;20187;-74
2022/09/21 03:01:42;;;;;;;6.77;2.93;;;-40.00;99.90;;;;;;5078237;28;20175;-70
2022/09/21 03:04:08;;;;;;;5.13;3.93;;;-40.00;99.90;;;;;;5073698;28;20225;-69
2022/09/21 03:06:34;;;;;;;5.97;2.83;;;-40.00;99.90;;;;;;5074906;28;20182;-70
2022/09/21 03:09:00;;;;;;;6.87;3.10;;;-40.00;99.90;;;;;;5074152;28;20179;-71
2022/09/21 03:11:26;;;;;;;16.47;3.20;;;-40.00;99.90;;;;;;5080081;28;20505;-71
2022/09/21 03:13:52;;;;;;;7.03;3.33;;;-40.00;99.90;;;;;;5080517;28;20594;-69
2022/09/21 03:16:17;;;;;;;3.77;3.17;;;-40.00;99.90;;;;;;5074837;28;20621;-74
2022/09/21 03:18:43;;;;;;;6.53;4.43;;;-40.00;99.90;;;;;;5080061;28;20179;-78
2022/09/21 03:21:12;;;;;;;6.63;4.07;;;-40.00;99.90;;;;;;5087522;28;20240;-73
2022/09/21 03:23:39;;;;;;;4.03;3.73;;;-40.00;99.90;;;;;;5087298;28;20262;-77
2022/09/21 03:26:05;;;;;;;12.17;4.07;;;-40.00;99.90;;;;;;5088853;28;20582;-77
2022/09/21 03:28:30;;;;;;;5.53;3.43;;;-40.00;99.90;;;;;;5077707;28;20274;-80
2022/09/21 03:30:56;;;;;;;4.30;3.90;;;-40.00;99.90;;;;;;5078525;28;20639;-77
2022/09/21 03:33:24;;;;;;;10.33;4.80;;;-40.00;99.90;;;;;;5082855;28;20489;-77
2022/09/21 03:35:50;;;;;;;5.33;4.03;;;-40.00;99.90;;;;;;5083259;28;20210;-79
2022/09/21 03:38:17;;;;;;;5.40;3.90;;;-40.00;99.90;;;;;;5080749;28;20195;-74
2022/09/21 03:40:49;;;;;;;5.27;4.03;;;-40.00;99.90;;;;;;5080359;28;20452;-78
2022/09/21 03:43:16;;;;;;;4.83;3.30;;;-40.00;99.90;;;;;;5081494;28;20184;-77
2022/09/21 03:45:42;;;;;;;4.47;3.07;;;-40.00;99.90;;;;;;5085672;28;20206;-73
2022/09/21 03:48:10;;;;;;;5.97;5.23;;;-40.00;99.90;;;;;;5078302;28;20183;-77
2022/09/21 03:50:36;;;;;;;6.10;3.90;;;-40.00;99.90;;;;;;5078500;28;20201;-75
2022/09/21 03:53:02;;;;;;;5.90;3.90;;;-40.00;99.90;;;;;;5078301;28;20211;-78
2022/09/21 03:55:28;;;;;;;6.30;3.43;;;-40.00;99.90;;;;;;5078646;28;20249;-77
2022/09/21 03:57:54;;;;;;;10.20;4.13;;;-40.00;99.90;;;;;;5078160;28;20203;-80
2022/09/21 04:00:21;;;;;;;6.37;4.00;;;-40.00;99.90;;;;;;5077884;28;20198;-79
2022/09/21 04:02:46;;;;;;;12.47;4.53;;;-40.00;99.90;;;;;;5088732;28;20179;-73
2022/09/21 04:05:14;;;;;;;3.93;3.53;;;-40.00;99.90;;;;;;5082280;28;20240;-78
2022/09/21 04:07:40;;;;;;;4.20;3.70;;;-40.00;99.90;;;;;;5083812;28;20186;-79
2022/09/21 04:10:10;;;;;;;4.77;4.00;;;-40.00;99.90;;;;;;5085379;28;20175;-79
2022/09/21 04:12:36;;;;;;;4.73;3.77;;;-40.00;99.90;;;;;;5080975;28;20198;-74
2022/09/21 04:15:06;;;;;;;6.27;4.03;;;-40.00;99.90;;;;;;5077146;28;20195;-74
2022/09/21 04:17:33;;;;;;;9.57;4.50;;;-40.00;99.90;;;;;;5081041;28;20228;-77
2022/09/21 04:19:58;;;;;;;6.00;4.27;;;-40.00;99.90;;;;;;5080508;28;20176;-80
2022/09/21 04:22:24;;;;;;;5.27;3.97;;;-40.00;99.90;;;;;;5076498;28;20675;-80
2022/09/21 04:24:50;;;;;;;4.73;4.00;;;-40.00;99.90;;;;;;5081230;28;20502;-80
2022/09/21 04:27:17;;;;;;;15.53;5.30;;;-40.00;99.90;;;;;;5084251;28;20489;-79
2022/09/21 04:29:43;;;;;;;5.10;4.67;;;-40.00;99.90;;;;;;5077222;28;20236;-78
2022/09/21 04:32:12;;;;;;;4.87;4.13;;;-40.00;99.90;;;;;;5076973;28;20286;-75
2022/09/21 04:34:38;;;;;;;4.33;3.90;;;-40.00;99.90;;;;;;5080854;28;20263;-81
2022/09/21 04:37:07;;;;;;;6.93;3.93;;;-40.00;99.90;;;;;;5076521;28;20605;-79
2022/09/21 04:39:33;;;;;;;5.57;4.10;;;-40.00;99.90;;;;;;5085641;28;20223;-76
2022/09/21 04:41:59;;;;;;;5.60;4.43;;;-40.00;99.90;;;;;;5083928;28;20517;-76
2022/09/21 04:44:25;;;;;;;9.27;4.33;;;-40.00;99.90;;;;;;5077262;28;20210;-79
2022/09/21 04:46:51;;;;;;;6.23;4.43;;;-40.00;99.90;;;;;;5077272;28;20186;-80
2022/09/21 04:49:17;;;;;;;5.17;4.60;;;-40.00;99.90;;;;;;5078203;28;20186;-81
2022/09/21 04:51:42;;;;;;;8.93;4.70;;;-40.00;99.90;;;;;;5080097;28;20210;-77
2022/09/21 04:54:08;;;;;;;8.07;5.03;;;-40.00;99.90;;;;;;5080603;28;20197;-77
2022/09/21 04:56:34;;;;;;;4.47;4.07;;;-40.00;99.90;;;;;;5082235;28;20283;-78
2022/09/21 04:59:00;;;;;;;7.33;5.37;;;-40.00;99.90;;;;;;5076721;28;20214;-78
2022/09/21 05:01:26;;;;;;;12.23;5.33;;;-40.00;99.90;;;;;;5076504;28;20209;-80
2022/09/21 05:03:52;;;;;;;5.03;4.63;;;-40.00;99.90;;;;;;5083180;28;20182;-76
2022/09/21 05:06:18;;;;;;;7.40;4.63;;;-40.00;99.90;;;;;;5081807;28;20184;-67
2022/09/21 05:11:32;;;;;;;7.13;5.83;;;-40.00;99.90;;;;;;5080062;28;20264;-70
2022/09/21 05:13:58;;;;;;;7.20;4.67;;;-40.00;99.90;;;;;;5083752;28;20182;-69
2022/09/21 05:16:26;;;;;;;16.10;6.43;;;-40.00;99.90;;;;;;5078830;28;20187;-70
2022/09/21 05:18:55;;;;;;;22.47;5.90;;;-40.00;99.90;;;;;;5090806;28;20276;-70
2022/09/21 05:21:21;;;;;;;7.23;5.60;;;-40.00;99.90;;;;;;5081994;28;20587;-70
2022/09/21 05:23:47;;;;;;;8.73;6.57;;;-40.00;99.90;;;;;;5081984;28;20857;-70
2022/09/21 05:26:13;;;;;;;7.13;6.27;;;-40.00;99.90;;;;;;5078401;28;20293;-72
2022/09/21 05:28:39;;;;;;;8.33;6.23;;;-40.00;99.90;;;;;;5077948;28;20201;-69
2022/09/21 05:31:16;;;;;;;9.40;6.47;;;-40.00;99.90;;;;;;5081668;28;20186;-69
2022/09/21 05:33:50;;;;;;;8.27;5.90;;;-40.00;99.90;;;;;;5082261;28;20210;-70
2022/09/21 05:36:31;;;;;;;7.63;5.47;;;-40.00;99.90;;;;;;5081923;28;20210;-70
2022/09/21 05:38:57;;;;;;;10.50;6.00;;;-40.00;99.90;;;;;;5075443;28;20179;-70
2022/09/21 05:41:23;;;;;;;6.00;5.50;;;-40.00;99.90;;;;;;5075547;28;20305;-73
2022/09/21 05:43:49;;;;;;;11.20;6.27;;;-40.00;99.90;;;;;;5075975;28;20189;-68
2022/09/21 05:46:31;;;;;;;7.73;5.87;;;-40.00;99.90;;;;;;5075934;28;20616;-68
2022/09/21 05:49:03;;;;;;;5.97;5.17;;;-40.00;99.90;;;;;;5074488;28;20186;-67
2022/09/21 05:51:37;;;;;;;6.67;5.50;;;-40.00;99.90;;;;;;5080213;28;20498;-68
2022/09/21 05:54:02;;;;;;;7.70;5.57;;;-40.00;99.90;;;;;;5082664;28;20187;-70
2022/09/21 05:56:56;;;;;;;9.70;5.67;;;-40.00;99.90;;;;;;5083695;28;20517;-67
2022/09/21 05:59:44;;;;;;;8.73;6.63;;;-40.00;99.90;;;;;;5082190;28;20191;-71
2022/09/21 06:02:46;;;;;;;7.87;6.90;;;-40.00;99.90;;;;;;5078947;28;20182;-67
2022/09/21 06:05:14;;;;;;;12.60;6.93;;;-40.00;99.90;;;;;;5075638;28;20175;-73
2022/09/21 06:07:40;;;;;;;8.77;6.40;;;-40.00;99.90;;;;;;5082700;28;20465;-78
2022/09/21 06:10:13;;;;;;;10.60;6.60;;;-40.00;99.90;;;;;;5077953;28;20628;-69
2022/09/21 06:12:39;;;;;;;10.43;7.37;;;-40.00;99.90;;;;;;5081594;28;20590;-72
2022/09/21 06:15:08;;;;;;;36.00;8.00;;;-40.00;99.90;;;;;;5079029;28;20256;-73
2022/09/21 06:17:34;;;;;;;13.07;8.23;;;-40.00;99.90;;;;;;5080611;28;20262;-72
2022/09/21 06:20:01;;;;;;;14.40;7.40;;;-40.00;99.90;;;;;;5075621;28;20266;-73
2022/09/21 06:22:27;;;;;;;11.17;6.90;;;-40.00;99.90;;;;;;5075086;28;20176;-70
2022/09/21 06:24:53;;;;;;;13.73;8.47;;;-40.00;99.90;;;;;;5082672;28;20191;-73
2022/09/21 06:27:19;;;;;;;13.03;8.20;;;-40.00;99.90;;;;;;5081367;28;20286;-80
2022/09/21 06:29:45;;;;;;;11.80;6.67;;;-40.00;99.90;;;;;;5086119;28;20209;-76
2022/09/21 06:32:11;;;;;;;7.77;6.80;;;-40.00;99.90;;;;;;5076818;28;20194;-81
2022/09/21 06:34:37;;;;;;;13.47;9.60;;;-40.00;99.90;;;;;;5079103;28;20651;-80
2022/09/21 06:37:03;;;;;;;10.63;7.57;;;-40.00;99.90;;;;;;5086685;28;20224;-83
2022/09/21 06:39:29;;;;;;;13.90;7.20;;;-40.00;99.90;;;;;;5076006;28;20218;-78
2022/09/21 06:41:55;;;;;;;12.13;9.10;;;-40.00;99.90;;;;;;5082079;28;20207;-79
2022/09/21 06:44:21;;;;;;;11.10;7.67;;;-40.00;99.90;;;;;;5081401;28;20578;-68
2022/09/21 06:46:46;;;;;;;18.77;8.83;;;-40.00;99.90;;;;;;5079533;28;20317;-70
2022/09/21 06:49:12;;;;;;;10.80;8.00;;;-40.00;99.90;;;;;;5078913;28;20180;-70
2022/09/21 06:51:38;;;;;;;11.30;9.20;;;-40.00;99.90;;;;;;5074904;28;20511;-70
2022/09/21 06:54:04;;;;;;;9.77;8.07;;;-40.00;99.90;;;;;;5074309;28;20241;-72
2022/09/21 06:56:30;;;;;;;17.47;9.90;;;-40.00;99.90;;;;;;5079671;28;20183;-68
2022/09/21 06:58:56;;;;;;;14.77;9.43;;;-40.00;99.90;;;;;;5082007;28;20186;-73
2022/09/21 07:01:23;;;;;;;13.47;7.70;;;-40.00;99.90;;;;;;5082092;28;20499;-69
2022/09/21 07:03:50;;;;;;;15.47;9.00;;;-40.00;99.90;;;;;;5074474;28;20172;-68
2022/09/21 07:06:17;;;;;;;10.93;8.57;;;-40.00;99.90;;;;;;5074355;28;20305;-70
2022/09/21 07:08:44;;;;;;;13.67;9.33;;;-40.00;99.90;;;;;;5075014;28;20184;-71
2022/09/21 07:11:11;;;;;;;12.57;8.33;;;-40.00;99.90;;;;;;5075030;28;20490;-69
2022/09/21 07:13:37;;;;;;;11.37;9.67;;;-40.00;99.90;;;;;;5074680;28;20194;-70
2022/09/21 07:16:08;;;;;;;9.47;8.47;;;-40.00;99.90;;;;;;5073609;28;20637;-69
2022/09/21 07:18:34;;;;;;;17.70;10.30;;;-40.00;99.90;;;;;;5084187;28;20258;-67
2022/09/21 07:21:08;;;;;;;12.70;10.43;;;-40.00;99.90;;;;;;5080189;28;20188;-68
2022/09/21 07:23:34;;;;;;;15.77;10.57;;;-40.00;99.90;;;;;;5083667;28;20484;-69
2022/09/21 07:26:06;;;;;;;14.10;11.60;;;-40.00;99.90;;;;;;5079755;28;20534;-69
2022/09/21 07:28:32;;;;;;;23.33;12.10;;;-40.00;99.90;;;;;;5078662;28;20196;-67
2022/09/21 07:31:04;;;;;;;11.37;10.27;;;-40.00;99.90;;;;;;5074303;28;20185;-68
2022/09/21 07:33:32;;;;;;;20.23;13.03;;;-40.00;99.90;;;;;;5084188;28;20221;-68
2022/09/21 07:35:59;;;;;;;22.80;13.03;;;-40.00;99.90;;;;;;5078369;28;20213;-80
2022/09/21 07:38:28;;;;;;;18.57;14.23;;;-40.00;99.90;;;;;;5079507;28;20474;-75
2022/09/21 07:40:54;;;;;;;22.57;14.17;;;-40.00;99.90;;;;;;5080718;28;20644;-69
2022/09/21 07:43:20;;;;;;;21.70;16.03;;;-40.00;99.90;;;;;;5087293;28;20189;-68
2022/09/21 07:45:56;;;;;;;21.20;16.43;;;-40.00;99.90;;;;;;5075398;28;20325;-74
2022/09/21 07:48:23;;;;;;;21.97;16.13;;;-40.00;99.90;;;;;;5078218;28;20189;-69
2022/09/21 07:50:49;;;;;;;21.10;15.57;;;-40.00;99.90;;;;;;5079766;28;20191;-70
2022/09/21 07:53:16;;;;;;;19.43;16.27;;;-40.00;99.90;;;;;;5076331;28;20675;-69
2022/09/21 07:55:43;;;;;;;22.00;17.57;;;-40.00;99.90;;;;;;5078834;28;20228;-68
2022/09/21 08:00:53;;;;;;;22.77;17.37;;;-40.00;99.90;;;;;;5073681;28;20210;-69
2022/09/21 08:03:19;;;;;;;27.03;18.10;;;-40.00;99.90;;;;;;5073856;28;20501;-70
2022/09/21 08:05:45;;;;;;;20.40;15.57;;;-40.00;99.90;;;;;;5075662;28;20229;-71
2022/09/21 08:08:10;;;;;;;21.60;16.53;;;-40.00;99.90;;;;;;5077687;28;20191;-70
2022/09/21 08:10:38;;;;;;;18.20;15.13;;;-40.00;99.90;;;;;;5081226;28;20207;-71
2022/09/21 08:13:04;;;;;;;23.70;15.30;;;-40.00;99.90;;;;;;5081210;28;20187;-69
2022/09/21 08:15:30;;;;;;;17.00;15.27;;;-40.00;99.90;;;;;;5077619;28;20294;-70
2022/09/21 08:17:57;;;;;;;20.00;15.67;;;-40.00;99.90;;;;;;5077293;28;20262;-70
2022/09/21 08:20:23;;;;;;;23.27;16.73;;;-40.00;99.90;;;;;;5079666;28;20188;-74
2022/09/21 08:22:52;;;;;;;17.70;15.53;;;-40.00;99.90;;;;;;5081481;28;20178;-72
2022/09/21 08:25:18;;;;;;;26.90;13.63;;;-40.00;99.90;;;;;;5076408;28;20186;-72
2022/09/21 08:27:43;;;;;;;16.83;14.50;;;-40.00;99.90;;;;;;5082474;28;20179;-71
2022/09/21 08:30:12;;;;;;;24.77;15.77;;;-40.00;99.90;;;;;;5082811;28;20316;-70
2022/09/21 08:32:39;;;;;;;18.87;13.97;;;-40.00;99.90;;;;;;5079500;28;20190;-74
2022/09/21 08:35:06;;;;;;;19.53;14.70;;;-40.00;99.90;;;;;;5081095;28;20195;-72
2022/09/21 08:37:34;;;;;;;18.20;14.20;;;-40.00;99.90;;;;;;5082204;28;20270;-74
2022/09/21 08:40:01;;;;;;;17.00;13.40;;;-40.00;99.90;;;;;;5076638;28;20539;-72
2022/09/21 08:42:40;;;;;;;21.47;15.00;;;-40.00;99.90;;;;;;5081702;28;20593;-70
2022/09/21 08:45:16;;;;;;;19.80;12.87;;;-40.00;99.90;;;;;;5081249;28;20206;-70
2022/09/21 08:47:56;;;;;;;19.50;12.20;;;-40.00;99.90;;;;;;5082943;28;20167;-71
2022/09/21 08:50:27;;;;;;;14.13;11.43;;;-40.00;99.90;;;;;;5083576;28;20191;-70
2022/09/21 08:52:59;;;;;;;12.00;10.43;;;-40.00;99.90;;;;;;5076964;28;20203;-68
2022/09/21 08:55:25;;;;;;;11.53;10.27;;;-40.00;99.90;;;;;;5076946;28;20210;-69
2022/09/21 08:57:52;;;;;;;13.17;7.87;;;-40.00;99.90;;;;;;5076045;28;20270;-69
2022/09/21 09:00:19;;;;;;;13.60;6.40;;;-40.00;99.90;;;;;;5058941;28;20198;-69
2022/09/21 09:03:02;;;;;;;7.63;5.23;;;-40.00;99.90;;;;;;5076731;28;20579;-71
2022/09/21 09:06:09;;;;;;;17.53;3.37;;;-40.00;99.90;;;;;;5076747;28;20185;-69
2022/09/21 09:09:05;;;;;;;8.00;3.43;;;-40.00;99.90;;;;;;5064482;28;20207;-72
2022/09/21 09:11:51;;;;;;;13.17;2.50;;;-40.00;99.90;;;;;;5075076;28;20537;-68
2022/09/21 09:14:20;;;;;;;10.27;3.30;;;-40.00;99.90;;;;;;5080951;28;20183;-72
2022/09/21 09:16:54;;;;;;;3.87;2.47;;;-40.00;99.90;;;;;;5082081;28;20217;-68
2022/09/21 09:19:38;;;;;;;9.63;3.17;;;-40.00;99.90;;;;;;5083528;28;20264;-70
2022/09/21 09:22:06;;;;;;;7.17;2.40;;;-40.00;99.90;;;;;;5077311;28;20186;-68
2022/09/21 09:24:42;;;;;;;3.70;1.97;;;-40.00;99.90;;;;;;5079073;28;20215;-71
2022/09/21 09:27:15;;;;;;;6.23;3.57;;;-40.00;99.90;;;;;;5074740;28;20604;-70
2022/09/21 09:30:02;;;;;;;5.23;3.43;;;-40.00;99.90;;;;;;5085206;28;20194;-72
2022/09/21 09:32:53;;;;;;;4.07;2.50;;;-40.00;99.90;;;;;;5075524;28;20651;-71
2022/09/21 09:35:29;;;;;;;7.43;3.20;;;-40.00;99.90;;;;;;5075892;28;20226;-69
2022/09/21 09:37:59;;;;;;;4.83;2.07;;;-40.00;99.90;;;;;;5082809;28;20570;-74
2022/09/21 09:40:57;;;;;;;4.70;2.30;;;-40.00;99.90;;;;;;5079573;28;20224;-72
2022/09/21 09:44:01;;;;;;;5.17;2.63;;;-40.00;99.90;;;;;;5075997;28;20189;-69
2022/09/21 09:46:36;;;;;;;6.03;2.70;;;-40.00;99.90;;;;;;5069051;28;20253;-74
2022/09/21 09:49:12;;;;;;;5.50;3.73;;;-40.00;99.90;;;;;;5082145;28;20266;-83
2022/09/21 09:51:39;;;;;;;9.43;3.17;;;-40.00;99.90;;;;;;5076771;28;20662;-78
2022/09/21 09:54:11;;;;;;;12.23;2.80;;;-40.00;99.90;;;;;;5080527;28;20581;-71
2022/09/21 09:56:37;;;;;;;8.60;2.40;;;-40.00;99.90;;;;;;5076139;28;20175;-69
2022/09/21 09:59:09;;;;;;;6.83;3.20;;;-40.00;99.90;;;;;;5080388;28;20262;-71
2022/09/21 10:01:38;;;;;;;3.73;2.83;;;-40.00;99.90;;;;;;5075374;28;20604;-68
2022/09/21 10:04:10;;;;;;;3.77;3.07;;;-40.00;99.90;;;;;;5082873;28;20187;-68
2022/09/21 10:06:37;;;;;;;8.60;3.30;;;-40.00;99.90;;;;;;5078990;28;20254;-70
2022/09/21 10:09:22;;;;;;;9.07;2.70;;;-40.00;99.90;;;;;;5082759;28;20171;-66
2022/09/21 10:11:48;;;;;;;4.13;2.40;;;-40.00;99.90;;;;;;5074596;28;20187;-69
2022/09/21 10:14:20;;;;;;;6.23;2.80;;;-40.00;99.90;;;;;;5075341;28;20167;-70
2022/09/21 10:16:52;;;;;;;6.47;1.80;;;-40.00;99.90;;;;;;5075951;28;20190;-76
2022/09/21 10:19:26;;;;;;;5.67;1.63;;;-40.00;99.90;;;;;;5075364;28;20186;-69
2022/09/21 10:21:59;;;;;;;2.53;1.67;;;-40.00;99.90;;;;;;5075545;28;20175;-69
2022/09/21 10:24:39;;;;;;;9.97;2.33;;;-40.00;99.90;;;;;;5074061;28;20198;-68
2022/09/21 10:27:09;;;;;;;3.73;1.70;;;-40.00;99.90;;;;;;5081309;28;20269;-69
2022/09/21 10:29:45;;;;;;;2.93;1.43;;;-40.00;99.90;;;;;;5086469;28;20175;-68
2022/09/21 10:32:11;;;;;;;4.40;1.87;;;-40.00;98.20;;;;;;5083877;28;20178;-71
2022/09/21 10:34:38;;;;;;;4.80;1.97;;;-40.00;99.30;;;;;;5078801;28;20272;-68
2022/09/21 10:37:27;;;;;;;7.03;2.03;;;-40.00;96.00;;;;;;5075354;28;20176;-70
2022/09/21 10:39:53;;;;;;;2.90;1.37;;;-40.00;94.70;;;;;;5075441;28;20179;-72
2022/09/21 10:42:20;;;;;;;2.33;1.63;;;-40.00;96.40;;;;;;5078311;28;20204;-69
2022/09/21 10:44:49;;;;;;;2.43;0.77;;;-40.00;95.80;;;;;;5080221;28;20179;-71
2022/09/21 10:47:17;;;;;;;3.73;1.53;;;-40.00;96.40;;;;;;5078971;28;20184;-70
2022/09/21 10:49:54;;;;;;;1.87;1.17;;;-40.00;94.00;;;;;;5080278;28;20174;-69
2022/09/21 10:52:24;;;;;;;9.20;1.37;;;-40.00;96.00;;;;;;5079402;28;20207;-68
2022/09/21 10:54:54;;;;;;;1.50;1.20;;;-40.00;94.20;;;;;;5073669;28;20202;-69
2022/09/21 10:57:23;;;;;;;15.30;3.53;;;-40.00;94.10;;;;;;5081197;28;20178;-70
2022/09/21 10:59:49;;;;;;;6.43;1.57;;;-40.00;95.20;;;;;;5077647;28;20502;-71
2022/09/21 11:02:32;;;;;;;3.63;1.33;;;-40.00;94.50;;;;;;5079709;28;20179;-70
2022/09/21 11:05:16;;;;;;;4.20;1.53;;;-40.00;94.00;;;;;;5079932;28;20228;-71
2022/09/21 11:07:58;;;;;;;6.27;1.30;;;-40.00;94.50;;;;;;5074552;28;20190;-71
2022/09/21 11:10:42;;;;;;;2.27;1.03;;;-40.00;96.80;;;;;;5074127;28;20183;-69
2022/09/21 11:13:08;;;;;;;3.80;1.50;;;-40.00;94.10;;;;;;5080946;28;20464;-71
2022/09/21 11:16:00;;;;;;;3.30;1.40;;;-40.00;96.00;;;;;;5074394;28;20706;-70
2022/09/21 11:18:48;;;;;;;4.70;1.63;;;-40.00;93.30;;;;;;5080243;28;20198;-77
2022/09/21 11:21:41;;;;;;;2.00;1.27;;;-40.00;93.60;;;;;;5074218;28;20209;-70
2022/09/21 11:24:22;;;;;;;10.93;2.27;;;-40.00;94.20;;;;;;5074196;28;20187;-71
2022/09/21 11:27:12;;;;;;;2.60;0.77;;;-40.00;93.20;;;;;;5078805;28;20183;-71
2022/09/21 11:29:51;;;;;;;8.70;1.83;;;-40.00;93.40;;;;;;5074136;28;20575;-70
2022/09/21 11:32:42;;;;;;;2.53;1.23;;;-40.00;92.10;;;;;;5081600;28;20657;-69
2022/09/21 11:35:24;;;;;;;3.87;1.10;;;-40.00;93.80;;;;;;5081304;28;20203;-69
2022/09/21 11:38:17;;;;;;;2.67;1.40;;;-40.00;93.50;;;;;;5080506;28;20663;-69
2022/09/21 11:41:27;;;;;;;8.87;2.10;;;-40.00;92.50;;;;;;5080016;28;20175;-68
2022/09/21 11:44:31;;;;;;;8.97;2.47;;;-40.00;92.50;;;;;;5023434;28;20180;-69
2022/09/21 11:46:59;;;;;;;1.67;1.43;;;-40.00;93.60;;;;;;5082789;28;20577;-79
2022/09/21 11:49:50;;;;;;;3.73;1.30;;;-40.00;91.70;;;;;;5085418;28;20184;-70
2022/09/21 11:52:37;;;;;;;3.87;1.27;;;18.20;99.90;;;;;;5081338;28;20478;-71
2022/09/21 11:55:40;;;;;;;2.80;1.30;;;18.10;99.90;;;;;;5079718;28;20236;-70
2022/09/21 11:58:19;;;;;;;7.00;0.90;;;18.10;99.90;;;;;;5086177;28;20201;-72
2022/09/21 12:01:03;;;;;;;2.93;1.47;;;18.10;99.90;;;;;;5077930;28;20206;-69
2022/09/21 12:03:36;;;;;;;3.03;0.87;;;-40.00;87.70;;;;;;5077844;28;20175;-69
2022/09/21 12:06:08;;;;;;;2.83;0.97;;;-40.00;72.70;;;;;;5077213;28;20224;-68
2022/09/21 12:08:51;;;;;;;1.10;0.97;;;19.10;98.80;;;;;;5082303;28;20198;-69
2022/09/21 12:11:22;;;;;;;1.63;0.90;;;20.00;99.90;;;;;;5077600;28;20201;-70
2022/09/21 12:14:13;;;;;;;3.03;1.03;;;19.60;99.90;;;;;;5077062;28;20187;-70
2022/09/21 12:17:10;;;;;;;0.93;0.50;;;20.40;99.90;;;;;;5086709;28;20199;-69
2022/09/21 12:20:01;;;;;;;0.87;0.50;;;21.40;95.80;;;;;;5084394;28;20190;-69
2022/09/21 12:22:32;;;;;;;1.20;0.57;;;-40.00;60.40;;;;;;5086346;28;20316;-71
2022/09/21 12:25:01;;;;;;;1.67;1.03;;;22.80;92.30;;;;;;5081966;28;20236;-70
2022/09/21 12:27:47;;;;;;;4.00;1.20;;;22.90;93.40;;;;;;5077259;28;20490;-74
2022/09/21 12:30:19;;;;;;;1.60;0.77;;;23.30;94.10;;;;;;5081670;28;20179;-74
2022/09/21 12:33:08;;;;;;;1.73;1.10;;;24.00;94.00;;;;;;5079273;28;20509;-74
2022/09/21 12:35:57;;;;;;;1.87;1.70;;;24.70;91.70;;;;;;5083399;28;20203;-73
2022/09/21 12:38:46;;;;;;;4.23;1.27;;;24.80;90.20;;;;;;5087242;28;20175;-70
2022/09/21 12:41:30;;;;;;;3.40;0.60;;;25.10;91.30;;;;;;5083664;28;20180;-69
2022/09/21 12:44:13;;;;;;;6.37;1.50;;;24.70;88.60;;;;;;5077172;28;20613;-73
2022/09/21 12:47:08;;;;;;;4.57;0.90;;;24.40;89.60;;;;;;5082845;28;20190;-69
2022/09/21 12:49:41;;;;;;;1.83;1.00;;;-40.00;46.50;;;;;;5080111;28;20191;-70
2022/09/21 12:52:07;;;;;;;3.30;0.80;;;-23.40;52.60;;;;;;5078138;28;20218;-70
2022/09/21 12:54:36;;;;;;;2.23;0.90;;;26.30;82.00;;;;;;5083793;28;21983;-69
2022/09/21 12:57:38;;;;;;;1.33;0.80;;;26.10;82.90;;;;;;5077032;28;20185;-70
2022/09/21 13:00:13;;;;;;;2.17;0.83;;;5.10;66.90;;;;;;5081516;28;20208;-69
2022/09/21 13:02:53;;;;;;;1.43;1.00;;;26.70;81.10;;;;;;5076818;28;20197;-69
2022/09/21 13:05:37;;;;;;;2.70;1.77;;;26.60;75.20;;;;;;5081982;28;20486;-70